Time;durP1;ratioP1;P1;durP2;ratioP2;P2;SDS_P1;SDS_P2;PMS_P1;PMS_P2;Temp;Humidity;BMP_temperature;BMP_pressure;BME280_temperature;BME280_humidity;BME280_pressure;Samples;Min_cycle;Max_cycle;Signal;HPM_P1;HPM_P2
2022/07/13 00:02:41;;;;;;;2.62;0.70;;;24.40;93.10;;;;;;1918679;73;21519;-83
2022/07/13 00:05:32;;;;;;;1.07;0.72;;;24.40;93.20;;;;;;1936899;73;21161;-83
2022/07/13 00:08:23;;;;;;;1.65;0.82;;;24.30;93.80;;;;;;1920265;73;21542;-82
2022/07/13 00:11:15;;;;;;;0.80;0.70;;;24.00;95.10;;;;;;1920213;73;21124;-83
2022/07/13 00:16:45;;;;;;;1.57;0.70;;;23.90;95.30;;;;;;1964324;72;22153;-83
2022/07/13 00:19:37;;;;;;;1.92;0.80;;;23.90;95.70;;;;;;1975345;72;21084;-83
2022/07/13 00:22:28;;;;;;;2.12;0.60;;;23.80;96.20;;;;;;1954274;72;21511;-83
2022/07/13 00:25:19;;;;;;;1.40;0.70;;;23.60;96.30;;;;;;1951517;73;21120;-83
2022/07/13 00:28:10;;;;;;;1.50;0.60;;;23.70;96.30;;;;;;1951131;73;21086;-83
2022/07/13 00:31:01;;;;;;;2.12;0.85;;;23.60;97.40;;;;;;1951043;73;21105;-83
2022/07/13 00:33:52;;;;;;;0.82;0.68;;;23.40;98.10;;;;;;1950963;73;21494;-83
2022/07/13 00:39:23;;;;;;;2.85;0.70;;;23.10;98.50;;;;;;1952355;72;22159;-82
2022/07/13 00:42:15;;;;;;;2.08;0.78;;;23.20;98.40;;;;;;1898934;73;21102;-82
2022/07/13 00:45:08;;;;;;;2.40;0.80;;;23.20;98.20;;;;;;1920055;73;21086;-83
2022/07/13 00:48:00;;;;;;;1.32;0.85;;;23.30;99.10;;;;;;1887137;75;21194;-82
2022/07/13 00:50:51;;;;;;;2.35;0.80;;;23.10;99.80;;;;;;1906612;73;21115;-82
2022/07/13 00:56:27;;;;;;;4.05;0.65;;;22.80;99.90;;;;;;1935609;72;22176;-82
2022/07/13 00:59:18;;;;;;;0.98;0.70;;;22.80;99.90;;;;;;1900674;75;21101;-82
2022/07/13 01:04:50;;;;;;;1.90;0.60;;;22.70;99.90;;;;;;1950081;72;22173;-82
2022/07/13 01:10:25;;;;;;;1.50;0.72;;;22.80;99.90;;;;;;1944742;72;22250;-82
2022/07/13 01:13:17;;;;;;;1.52;0.72;;;22.90;99.90;;;;;;1894528;74;21047;-82
2022/07/13 01:16:10;;;;;;;0.72;0.72;;;23.00;99.90;;;;;;1892017;75;21634;-82
2022/07/13 01:19:03;;;;;;;2.10;0.60;;;23.10;99.90;;;;;;1886005;75;21192;-82
2022/07/13 01:21:58;;;;;;;1.35;0.80;;;23.20;99.90;;;;;;1884836;75;21575;-82
2022/07/13 01:24:50;;;;;;;1.50;0.78;;;23.30;99.90;;;;;;1884782;75;21078;-82
2022/07/13 01:30:20;;;;;;;2.15;0.70;;;23.30;99.90;;;;;;1935113;72;22161;-82
2022/07/13 01:35:50;;;;;;;1.22;0.60;;;23.40;99.90;;;;;;1929365;72;22142;-82
2022/07/13 01:38:43;;;;;;;1.20;0.60;;;23.30;99.90;;;;;;1882787;75;21143;-83
2022/07/13 01:41:35;;;;;;;1.17;0.90;;;23.30;99.90;;;;;;1902683;75;21471;-82
2022/07/13 01:44:26;;;;;;;1.20;0.60;;;23.20;99.90;;;;;;1890824;75;21051;-82
2022/07/13 01:47:17;;;;;;;1.98;0.70;;;23.30;99.90;;;;;;1912746;75;21164;-83
2022/07/13 01:50:11;;;;;;;1.12;0.72;;;23.20;99.90;;;;;;1894340;75;21113;-82
2022/07/13 01:55:41;;;;;;;1.20;0.72;;;23.10;99.90;;;;;;1955471;72;22106;-82
2022/07/13 01:58:33;;;;;;;2.40;0.93;;;23.10;99.90;;;;;;1908325;74;21079;-83
2022/07/13 02:01:24;;;;;;;2.10;0.70;;;23.10;99.90;;;;;;1854349;76;21116;-82
2022/07/13 02:06:54;;;;;;;3.08;0.78;;;23.00;99.90;;;;;;1941506;72;22172;-82
2022/07/13 02:09:45;;;;;;;1.07;0.65;;;22.90;99.90;;;;;;1916614;75;21102;-82
2022/07/13 02:12:36;;;;;;;0.93;0.72;;;22.80;99.90;;;;;;1917461;74;21133;-83
2022/07/13 02:15:29;;;;;;;1.02;0.70;;;22.90;99.90;;;;;;1920609;73;21059;-83
2022/07/13 02:18:21;;;;;;;1.00;0.82;;;22.90;99.90;;;;;;1917436;73;21577;-83
2022/07/13 02:21:12;;;;;;;1.85;0.68;;;22.90;99.90;;;;;;1917682;73;21091;-83
2022/07/13 02:26:47;;;;;;;2.60;0.90;;;22.70;99.90;;;;;;1929756;72;22117;-82
2022/07/13 02:29:38;;;;;;;0.98;0.70;;;22.70;99.90;;;;;;1937492;72;21343;-82
2022/07/13 02:32:31;;;;;;;2.87;0.80;;;22.70;99.90;;;;;;1932548;73;21080;-82
2022/07/13 02:35:22;;;;;;;2.27;0.80;;;22.70;99.90;;;;;;1924090;73;21038;-82
2022/07/13 02:38:14;;;;;;;0.82;0.70;;;22.60;99.90;;;;;;1941366;73;21583;-82
2022/07/13 02:41:06;;;;;;;2.45;0.90;;;22.70;99.90;;;;;;1924146;74;21046;-82
2022/07/13 02:43:58;;;;;;;1.50;0.75;;;22.70;99.90;;;;;;1924066;74;21026;-82
2022/07/13 02:46:49;;;;;;;0.88;0.70;;;22.70;99.90;;;;;;1923726;74;21042;-82
2022/07/13 02:52:25;;;;;;;5.37;0.82;;;22.70;99.90;;;;;;1945879;72;22208;-82
2022/07/13 02:55:17;;;;;;;0.98;0.93;;;22.60;99.90;;;;;;1897688;75;21055;-83
2022/07/13 02:58:08;;;;;;;2.25;0.90;;;22.60;99.90;;;;;;1885712;75;21090;-83
2022/07/13 03:00:59;;;;;;;0.75;0.65;;;22.60;99.90;;;;;;1886322;75;21548;-83
2022/07/13 03:03:52;;;;;;;1.00;0.80;;;22.50;99.90;;;;;;1891856;75;21435;-83
2022/07/13 03:09:23;;;;;;;1.72;0.80;;;22.40;99.90;;;;;;1954301;72;22188;-82
2022/07/13 03:14:54;;;;;;;1.67;0.80;;;22.40;99.90;;;;;;1946775;72;22183;-82
2022/07/13 03:17:45;;;;;;;1.47;0.80;;;22.40;99.90;;;;;;1904887;74;21183;-82
2022/07/13 03:20:37;;;;;;;1.50;0.80;;;22.40;99.90;;;;;;1897696;75;21079;-82
2022/07/13 03:23:29;;;;;;;0.88;0.60;;;22.40;99.90;;;;;;1894988;75;21100;-82
2022/07/13 03:26:20;;;;;;;1.30;0.72;;;22.40;99.90;;;;;;1895373;75;21118;-82
2022/07/13 03:29:12;;;;;;;0.90;0.70;;;22.40;99.90;;;;;;1894186;75;21047;-82
2022/07/13 03:34:44;;;;;;;1.45;0.70;;;22.30;99.90;;;;;;1957928;72;22184;-83
2022/07/13 03:40:15;;;;;;;2.45;0.88;;;22.30;99.90;;;;;;1974854;72;22162;-82
2022/07/13 03:43:07;;;;;;;2.80;1.07;;;22.20;99.90;;;;;;1921859;73;21065;-83
2022/07/13 03:45:59;;;;;;;3.22;1.22;;;22.20;99.90;;;;;;1917629;75;21051;-83
2022/07/13 03:48:51;;;;;;;1.17;0.70;;;22.20;99.90;;;;;;1927837;73;21147;-83
2022/07/13 03:51:42;;;;;;;1.40;0.98;;;22.20;99.90;;;;;;1927916;73;21059;-83
2022/07/13 03:54:34;;;;;;;0.95;0.80;;;22.20;99.90;;;;;;1887655;76;21045;-83
2022/07/13 04:00:07;;;;;;;1.52;1.00;;;22.10;99.90;;;;;;1922898;72;22153;-82
2022/07/13 04:03:00;;;;;;;3.08;0.90;;;22.10;99.90;;;;;;1894013;75;21062;-82
2022/07/13 04:05:52;;;;;;;2.22;0.90;;;22.10;99.90;;;;;;1882479;75;21125;-83
2022/07/13 04:08:44;;;;;;;1.02;0.90;;;22.10;99.90;;;;;;1894803;75;21702;-83
2022/07/13 04:11:36;;;;;;;2.17;0.98;;;22.10;99.90;;;;;;1872390;75;21170;-83
2022/07/13 04:14:28;;;;;;;1.00;0.80;;;22.10;99.90;;;;;;1878574;75;21152;-83
2022/07/13 04:17:19;;;;;;;2.17;0.90;;;22.10;99.90;;;;;;1889095;75;21148;-83
2022/07/13 04:20:12;;;;;;;2.17;1.05;;;22.10;99.90;;;;;;1868758;75;21121;-82
2022/07/13 04:25:50;;;;;;;4.50;1.20;;;22.00;99.90;;;;;;1967057;72;22194;-82
2022/07/13 04:28:41;;;;;;;1.00;0.90;;;22.00;99.90;;;;;;1918996;73;21138;-82
2022/07/13 04:31:33;;;;;;;1.72;1.05;;;22.10;99.90;;;;;;1917776;75;21062;-82
2022/07/13 04:34:24;;;;;;;1.20;0.90;;;22.10;99.90;;;;;;1917726;75;21113;-82
2022/07/13 04:37:16;;;;;;;1.25;0.57;;;22.10;99.90;;;;;;1922464;73;21106;-82
2022/07/13 04:40:09;;;;;;;11.75;3.08;;;22.10;99.90;;;;;;1929671;73;21056;-82
2022/07/13 04:43:00;;;;;;;3.65;1.10;;;22.10;99.90;;;;;;1920071;73;21132;-81
2022/07/13 04:45:51;;;;;;;3.77;1.30;;;22.00;99.90;;;;;;1935600;73;21721;-83
2022/07/13 04:48:43;;;;;;;1.20;0.80;;;22.00;99.90;;;;;;1933900;73;21054;-83
2022/07/13 04:51:37;;;;;;;1.37;0.80;;;21.90;99.90;;;;;;1915173;73;21125;-83
2022/07/13 04:54:29;;;;;;;2.95;1.25;;;21.80;99.90;;;;;;1934253;73;21059;-76
2022/07/13 05:00:00;;;;;;;2.25;1.12;;;21.80;99.90;;;;;;1943483;72;22283;-75
2022/07/13 05:02:52;;;;;;;2.02;1.10;;;21.80;99.90;;;;;;1902707;73;21217;-75
2022/07/13 05:05:44;;;;;;;4.97;1.10;;;21.80;99.90;;;;;;1927357;73;21489;-75
2022/07/13 05:08:36;;;;;;;2.15;1.12;;;21.80;99.90;;;;;;1924559;73;21587;-74
2022/07/13 05:11:27;;;;;;;3.58;1.12;;;21.90;99.90;;;;;;1924360;73;22358;-75
2022/07/13 05:14:19;;;;;;;2.52;1.10;;;21.90;99.90;;;;;;1917027;73;21050;-75
2022/07/13 05:17:10;;;;;;;2.10;1.10;;;22.00;99.90;;;;;;1927802;73;21125;-75
2022/07/13 05:20:02;;;;;;;1.98;0.90;;;22.00;99.90;;;;;;1917472;73;21114;-75
2022/07/13 05:22:55;;;;;;;5.12;1.00;;;22.00;99.90;;;;;;1924624;73;21106;-75
2022/07/13 05:25:49;;;;;;;4.00;1.05;;;22.00;99.90;;;;;;1933603;73;21047;-75
2022/07/13 05:28:41;;;;;;;3.00;1.30;;;22.20;99.90;;;;;;1935379;73;21126;-74
2022/07/13 05:34:18;;;;;;;7.35;1.30;;;22.20;99.90;;;;;;1922338;72;28188;-75
2022/07/13 05:37:10;;;;;;;3.77;1.20;;;22.50;99.90;;;;;;1901187;75;21091;-75
2022/07/13 05:40:01;;;;;;;2.62;1.10;;;22.40;99.90;;;;;;1908068;73;21101;-75
2022/07/13 05:42:52;;;;;;;3.67;0.80;;;22.40;99.90;;;;;;1910285;75;21076;-75
2022/07/13 05:45:45;;;;;;;5.78;1.05;;;22.40;99.90;;;;;;1905888;73;21094;-75
2022/07/13 05:48:37;;;;;;;5.53;1.62;;;22.40;99.90;;;;;;1887675;75;21617;-76
2022/07/13 05:51:28;;;;;;;3.15;1.00;;;22.40;99.90;;;;;;1904755;75;21568;-75
2022/07/13 05:54:22;;;;;;;3.37;0.90;;;22.40;99.90;;;;;;1913347;75;21122;-76
2022/07/13 05:57:15;;;;;;;2.20;1.10;;;22.50;99.90;;;;;;1892486;75;21183;-75
2022/07/13 06:00:11;;;;;;;4.53;1.50;;;22.50;99.90;;;;;;1889907;75;21182;-76
2022/07/13 06:05:42;;;;;;;3.15;0.90;;;22.50;99.90;;;;;;1939235;72;22327;-75
2022/07/13 06:08:34;;;;;;;3.27;1.02;;;22.60;99.90;;;;;;1899191;75;21098;-75
2022/07/13 06:11:25;;;;;;;5.22;1.20;;;22.60;99.90;;;;;;1892198;75;21059;-75
2022/07/13 06:14:16;;;;;;;9.45;1.25;;;22.60;99.90;;;;;;1897998;75;21117;-75
2022/07/13 06:17:07;;;;;;;3.52;1.00;;;22.60;99.90;;;;;;1886631;75;21178;-75
2022/07/13 06:19:58;;;;;;;2.95;0.80;;;22.70;99.90;;;;;;1886657;75;21097;-75
2022/07/13 06:23:09;;;;;;;1.42;0.90;;;22.60;99.90;;;;;;1906544;75;21128;-75
2022/07/13 06:26:01;;;;;;;5.65;0.95;;;22.70;99.90;;;;;;1903401;75;21043;-75
2022/07/13 06:28:53;;;;;;;4.75;0.85;;;22.80;99.90;;;;;;1901554;75;21063;-76
2022/07/13 06:34:36;;;;;;;3.77;0.90;;;22.90;99.90;;;;;;1945937;72;22197;-75
2022/07/13 06:37:27;;;;;;;2.12;0.98;;;23.00;99.90;;;;;;1918027;73;21576;-77
2022/07/13 06:40:20;;;;;;;1.37;0.70;;;23.00;99.90;;;;;;1917445;75;21054;-76
2022/07/13 06:43:12;;;;;;;3.80;1.00;;;23.10;99.90;;;;;;1918243;73;21089;-76
2022/07/13 06:46:04;;;;;;;1.07;0.70;;;23.10;99.90;;;;;;1946062;73;21047;-76
2022/07/13 06:48:55;;;;;;;1.17;1.00;;;23.20;99.90;;;;;;1919242;73;21091;-76
2022/07/13 06:54:26;;;;;;;2.98;0.90;;;23.30;99.90;;;;;;1924887;72;22181;-75
2022/07/13 06:57:17;;;;;;;2.92;1.27;;;23.40;99.90;;;;;;1892050;75;21055;-75
2022/07/13 07:00:13;;;;;;;2.35;1.40;;;23.40;99.90;;;;;;1908948;75;21071;-75
2022/07/13 07:03:04;;;;;;;1.85;0.80;;;23.50;99.90;;;;;;1900610;75;21055;-82
2022/07/13 07:05:56;;;;;;;2.20;1.00;;;23.60;99.90;;;;;;1887391;75;21211;-75
2022/07/13 07:08:47;;;;;;;4.22;1.20;;;23.60;99.90;;;;;;1862562;76;21198;-75
2022/07/13 07:11:39;;;;;;;6.70;1.00;;;23.70;99.90;;;;;;1894954;75;21083;-75
2022/07/13 07:14:32;;;;;;;2.87;1.07;;;23.90;99.90;;;;;;1881453;75;21066;-75
2022/07/13 07:17:23;;;;;;;2.02;1.05;;;23.90;99.90;;;;;;1892662;75;21047;-76
2022/07/13 07:20:16;;;;;;;1.55;0.98;;;24.00;99.90;;;;;;1890092;75;21055;-75
2022/07/13 07:23:08;;;;;;;3.10;0.93;;;24.10;99.90;;;;;;1901004;75;21098;-76
2022/07/13 07:25:59;;;;;;;4.50;0.90;;;24.20;99.90;;;;;;1890540;75;21055;-75
2022/07/13 07:31:31;;;;;;;1.60;0.80;;;24.40;99.90;;;;;;1945340;72;22225;-75
2022/07/13 07:34:22;;;;;;;1.98;1.15;;;24.40;99.90;;;;;;1883816;75;21099;-76
2022/07/13 07:37:13;;;;;;;3.05;1.00;;;24.50;99.90;;;;;;1907300;75;21105;-82
2022/07/13 07:40:06;;;;;;;1.50;1.00;;;24.60;99.90;;;;;;1885892;75;21055;-82
2022/07/13 07:42:57;;;;;;;4.42;1.00;;;24.60;99.90;;;;;;1890495;75;21087;-83
2022/07/13 07:45:49;;;;;;;3.47;1.10;;;24.70;99.90;;;;;;1906992;75;21117;-83
2022/07/13 07:48:40;;;;;;;3.12;1.20;;;24.80;99.90;;;;;;1905983;75;21252;-83
2022/07/13 07:51:32;;;;;;;4.17;1.20;;;24.90;99.90;;;;;;1884574;75;21161;-76
2022/07/13 07:57:03;;;;;;;5.15;1.90;;;25.00;99.90;;;;;;1934750;72;22178;-75
2022/07/13 07:59:54;;;;;;;5.85;1.60;;;25.10;99.90;;;;;;1894297;75;21188;-76
2022/07/13 08:05:27;;;;;;;8.80;1.57;;;25.30;99.90;;;;;;1932975;72;22177;-83
2022/07/13 08:10:57;;;;;;;4.00;1.45;;;25.40;99.90;;;;;;1934639;72;22130;-82
2022/07/13 08:13:49;;;;;;;5.95;1.02;;;25.50;99.90;;;;;;1895922;75;21121;-82
2022/07/13 08:16:41;;;;;;;4.90;1.42;;;25.50;99.90;;;;;;1907026;75;21173;-82
2022/07/13 08:19:32;;;;;;;4.50;1.25;;;25.60;99.90;;;;;;1886275;74;21505;-83
2022/07/13 08:22:25;;;;;;;7.20;0.98;;;25.70;99.90;;;;;;1885052;75;21135;-83
2022/07/13 08:25:17;;;;;;;6.90;1.10;;;25.70;99.90;;;;;;1901821;75;21189;-83
2022/07/13 08:28:08;;;;;;;7.17;1.72;;;25.80;99.90;;;;;;1884534;75;21261;-83
2022/07/13 08:30:59;;;;;;;6.97;1.20;;;25.90;99.90;;;;;;1902767;75;21131;-83
2022/07/13 08:39:39;;;;;;;4.33;1.47;;;26.20;99.90;;;;;;1927727;72;22188;-82
2022/07/13 08:45:21;;;;;;;3.60;1.20;;;26.40;99.90;;;;;;1957760;72;22089;-82
2022/07/13 08:48:16;;;;;;;2.75;1.10;;;26.50;99.90;;;;;;1925259;73;21051;-75
2022/07/13 08:51:08;;;;;;;6.33;1.30;;;26.50;99.90;;;;;;1934071;73;21506;-75
2022/07/13 08:54:01;;;;;;;4.15;1.17;;;26.60;99.90;;;;;;1917542;73;21083;-75
2022/07/13 08:59:30;;;;;;;4.58;1.15;;;26.70;99.90;;;;;;1938782;72;22168;-75
2022/07/13 09:02:21;;;;;;;7.85;1.50;;;26.80;99.60;;;;;;1890685;75;21184;-75
2022/07/13 09:05:12;;;;;;;4.60;1.10;;;26.90;99.10;;;;;;1888578;75;21368;-75
2022/07/13 09:08:06;;;;;;;3.33;1.20;;;27.00;98.60;;;;;;1885026;75;21063;-77
2022/07/13 09:10:58;;;;;;;6.12;1.07;;;27.00;98.10;;;;;;1900364;75;21094;-76
2022/07/13 09:13:50;;;;;;;5.17;1.10;;;27.00;97.70;;;;;;1888535;75;21543;-76
2022/07/13 09:16:41;;;;;;;5.50;1.10;;;27.00;97.40;;;;;;1883402;75;21052;-76
2022/07/13 09:19:39;;;;;;;5.58;1.02;;;27.00;97.30;;;;;;1891004;75;21127;-76
2022/07/13 09:22:30;;;;;;;4.65;1.05;;;27.00;97.00;;;;;;1899833;75;21095;-76
2022/07/13 09:28:13;;;;;;;3.90;0.80;;;27.10;96.80;;;;;;1943941;72;22609;-82
2022/07/13 09:31:04;;;;;;;5.03;1.00;;;27.20;96.90;;;;;;1884560;75;21110;-82
2022/07/13 09:33:56;;;;;;;2.92;0.90;;;27.30;97.00;;;;;;1890892;75;21102;-82
2022/07/13 09:36:49;;;;;;;4.85;1.00;;;27.30;97.00;;;;;;1917192;75;21534;-83
2022/07/13 09:39:56;;;;;;;2.33;1.20;;;27.40;96.90;;;;;;1899938;75;21543;-82
2022/07/13 09:46:08;;;;;;;7.53;1.35;;;27.60;96.70;;;;;;1888622;75;21051;-83
2022/07/13 09:51:33;;;;;;;3.47;0.82;;;27.70;94.90;;;;;;1950078;72;22163;-83
2022/07/13 09:54:26;;;;;;;4.25;1.07;;;27.90;95.00;;;;;;1939039;73;21044;-76
2022/07/13 09:59:57;;;;;;;2.95;1.10;;;28.20;94.80;;;;;;1953340;72;22302;-75
2022/07/13 10:05:28;;;;;;;6.62;1.12;;;28.40;93.40;;;;;;1934527;72;22138;-75
2022/07/13 10:08:20;;;;;;;1.72;1.15;;;28.30;93.90;;;;;;1898113;75;21111;-75
2022/07/13 10:11:11;;;;;;;2.10;1.05;;;28.40;93.90;;;;;;1906511;75;21103;-75
2022/07/13 10:14:04;;;;;;;1.47;0.70;;;28.50;93.40;;;;;;1912834;75;21087;-75
2022/07/13 10:17:00;;;;;;;2.20;0.80;;;28.70;92.20;;;;;;1892836;75;21098;-75
2022/07/13 10:19:55;;;;;;;1.22;0.70;;;28.80;92.10;;;;;;1897334;75;21051;-76
2022/07/13 10:22:48;;;;;;;1.77;1.10;;;28.80;91.60;;;;;;1903902;75;21068;-76
2022/07/13 10:25:46;;;;;;;4.65;0.90;;;28.70;91.90;;;;;;1886618;75;21106;-76
2022/07/13 10:28:37;;;;;;;2.10;1.00;;;28.80;91.70;;;;;;1884849;75;21106;-75
2022/07/13 10:31:29;;;;;;;1.27;0.72;;;29.00;91.10;;;;;;1886867;75;21310;-83
2022/07/13 10:34:22;;;;;;;1.30;0.70;;;29.10;91.40;;;;;;1889391;75;21068;-83
2022/07/13 10:40:11;;;;;;;3.95;1.12;;;29.10;91.00;;;;;;1946333;72;26761;-82
2022/07/13 10:43:12;;;;;;;3.05;1.10;;;29.30;90.50;;;;;;1909661;74;21122;-83
2022/07/13 10:46:04;;;;;;;1.47;1.07;;;29.50;90.40;;;;;;1884821;75;21509;-76
2022/07/13 10:48:57;;;;;;;1.75;0.65;;;29.60;90.40;;;;;;1902367;75;21103;-75
2022/07/13 10:54:26;;;;;;;1.87;0.80;;;29.80;89.80;;;;;;1954412;72;22246;-75
2022/07/13 11:00:01;;;;;;;2.58;0.90;;;30.10;88.80;;;;;;1972878;72;22216;-75
2022/07/13 11:05:34;;;;;;;0.93;0.80;;;30.30;87.40;;;;;;1933939;72;22149;-75
2022/07/13 11:08:26;;;;;;;1.30;0.90;;;30.30;89.50;;;;;;1913839;75;21144;-76
2022/07/13 11:11:19;;;;;;;2.95;0.70;;;30.30;86.40;;;;;;1898545;75;21105;-76
2022/07/13 11:15:04;;;;;;;3.67;1.10;;;30.50;85.90;;;;;;1893314;75;21080;-76
2022/07/13 11:20:40;;;;;;;2.17;0.90;;;30.60;83.70;;;;;;1936650;72;22106;-75
2022/07/13 11:26:16;;;;;;;1.77;0.80;;;30.70;78.70;;;;;;1916634;72;22252;-75
2022/07/13 11:29:17;;;;;;;1.72;0.82;;;30.90;76.80;;;;;;1895456;75;21139;-75
2022/07/13 11:32:09;;;;;;;1.22;0.80;;;30.90;75.10;;;;;;1917558;75;21062;-75
2022/07/13 11:35:02;;;;;;;1.57;0.60;;;30.80;73.40;;;;;;1896621;75;21070;-76
2022/07/13 11:37:53;;;;;;;4.08;0.90;;;30.90;74.00;;;;;;1884646;76;21066;-75
2022/07/13 11:40:45;;;;;;;5.10;0.90;;;31.00;74.70;;;;;;1885198;74;21161;-76
2022/07/13 11:43:38;;;;;;;2.92;0.98;;;31.00;75.70;;;;;;1897484;74;21135;-76
2022/07/13 11:46:30;;;;;;;4.08;0.90;;;31.00;76.30;;;;;;1898186;75;21072;-75
2022/07/13 11:49:22;;;;;;;5.35;1.10;;;31.00;76.90;;;;;;1898648;74;21067;-83
2022/07/13 11:52:21;;;;;;;1.17;1.07;;;31.20;77.50;;;;;;1878901;75;21071;-84
2022/07/13 11:55:12;;;;;;;1.10;1.00;;;31.20;77.40;;;;;;1908615;74;21066;-85
2022/07/13 11:58:04;;;;;;;1.32;1.02;;;31.20;78.50;;;;;;1906430;75;21128;-77
2022/07/13 12:00:57;;;;;;;3.83;1.50;;;31.30;78.40;;;;;;1901054;75;21127;-76
2022/07/13 12:03:51;;;;;;;1.10;1.00;;;31.20;78.40;;;;;;1896892;75;21095;-76
2022/07/13 12:06:43;;;;;;;4.92;1.40;;;31.20;78.70;;;;;;1909978;75;21219;-76
2022/07/13 12:09:35;;;;;;;1.95;1.10;;;31.30;79.20;;;;;;1913513;74;21050;-84
2022/07/13 12:12:28;;;;;;;3.05;1.35;;;31.30;79.10;;;;;;1897476;74;21557;-76
2022/07/13 12:15:23;;;;;;;2.05;0.90;;;31.40;79.20;;;;;;1884666;76;21561;-76
2022/07/13 12:18:14;;;;;;;1.65;1.15;;;31.40;79.30;;;;;;1887287;75;21066;-75
2022/07/13 12:23:50;;;;;;;3.85;1.52;;;31.50;79.70;;;;;;1954377;72;22211;-75
2022/07/13 12:26:44;;;;;;;6.72;1.42;;;31.60;79.90;;;;;;1899131;75;21592;-82
2022/07/13 12:29:36;;;;;;;3.12;1.30;;;31.60;79.10;;;;;;1885528;75;21070;-82
2022/07/13 12:32:27;;;;;;;2.05;1.22;;;31.60;79.60;;;;;;1911472;75;21051;-83
2022/07/13 12:35:20;;;;;;;3.85;1.25;;;31.60;79.70;;;;;;1896188;75;21174;-82
2022/07/13 12:38:15;;;;;;;2.75;1.40;;;31.50;79.70;;;;;;1901112;75;21098;-83
2022/07/13 12:41:06;;;;;;;2.60;1.40;;;31.60;79.70;;;;;;1895935;75;21168;-82
2022/07/13 12:44:02;;;;;;;3.02;1.15;;;31.60;79.50;;;;;;1895396;75;21509;-83
2022/07/13 12:46:55;;;;;;;1.62;1.25;;;31.60;79.00;;;;;;1893477;75;21183;-85
2022/07/13 12:49:47;;;;;;;2.08;1.40;;;31.70;79.10;;;;;;1903691;75;21527;-86
2022/07/13 12:52:38;;;;;;;1.72;1.57;;;31.80;79.70;;;;;;1903475;75;21062;-77
2022/07/13 12:55:30;;;;;;;3.98;1.57;;;31.70;78.90;;;;;;1907126;75;21125;-77
2022/07/13 12:58:23;;;;;;;1.47;1.30;;;31.80;80.30;;;;;;1906415;75;21121;-78
2022/07/13 13:01:28;;;;;;;1.72;1.40;;;31.90;79.90;;;;;;1906215;75;21063;-76
2022/07/13 13:04:20;;;;;;;2.52;1.45;;;31.90;79.90;;;;;;1903905;75;21111;-76
2022/07/13 13:07:11;;;;;;;5.95;1.60;;;32.00;80.30;;;;;;1862508;76;21138;-76
2022/07/13 13:10:02;;;;;;;4.05;1.30;;;32.00;79.60;;;;;;1895743;75;21530;-76
2022/07/13 13:12:54;;;;;;;2.90;1.65;;;32.10;79.50;;;;;;1895637;75;21518;-76
2022/07/13 13:15:46;;;;;;;1.30;1.20;;;32.10;79.80;;;;;;1897104;75;21058;-76
2022/07/13 13:18:38;;;;;;;2.47;1.50;;;32.20;79.50;;;;;;1888418;75;21065;-77
2022/07/13 13:21:30;;;;;;;3.37;1.40;;;32.20;79.60;;;;;;1906273;75;21542;-77
2022/07/13 13:24:21;;;;;;;2.22;1.27;;;32.20;79.90;;;;;;1914616;74;21214;-76
2022/07/13 13:27:13;;;;;;;1.37;1.12;;;32.30;79.80;;;;;;1894029;74;21101;-76
2022/07/13 13:33:18;;;;;;;1.70;1.17;;;32.30;79.40;;;;;;1909568;74;21137;-76
2022/07/13 13:36:09;;;;;;;2.40;1.40;;;32.50;79.20;;;;;;1904620;74;21050;-76
2022/07/13 13:39:01;;;;;;;2.65;1.57;;;32.40;79.40;;;;;;1904496;74;21596;-76
2022/07/13 13:41:52;;;;;;;1.30;1.15;;;32.40;79.40;;;;;;1904218;74;21105;-76
2022/07/13 13:44:44;;;;;;;4.22;1.55;;;32.40;79.50;;;;;;1908234;74;21164;-76
2022/07/13 13:47:36;;;;;;;2.12;1.52;;;32.50;79.30;;;;;;1906444;74;21124;-76
2022/07/13 13:50:28;;;;;;;3.75;1.30;;;32.60;79.00;;;;;;1903764;74;21160;-76
2022/07/13 13:53:19;;;;;;;1.75;1.60;;;32.80;79.00;;;;;;1924134;74;21128;-76
2022/07/13 13:56:11;;;;;;;3.15;1.47;;;33.00;78.70;;;;;;1912264;74;21098;-76
2022/07/13 13:59:02;;;;;;;1.77;1.20;;;33.10;78.40;;;;;;1907416;74;21067;-76
2022/07/13 14:01:54;;;;;;;1.77;1.30;;;33.20;78.30;;;;;;1904258;74;21086;-76
2022/07/13 14:04:45;;;;;;;4.00;1.62;;;33.40;77.40;;;;;;1924102;74;21144;-76
2022/07/13 14:07:36;;;;;;;1.57;1.47;;;33.60;77.20;;;;;;1899411;75;21098;-76
2022/07/13 14:10:28;;;;;;;2.35;1.37;;;33.80;77.20;;;;;;1908483;74;21537;-76
2022/07/13 14:13:19;;;;;;;2.60;1.47;;;34.10;76.40;;;;;;1904482;74;21562;-76
2022/07/13 14:16:11;;;;;;;3.92;1.50;;;34.20;75.90;;;;;;1904422;74;21082;-76
2022/07/13 14:19:02;;;;;;;1.45;1.35;;;34.20;75.60;;;;;;1904840;74;21161;-77
2022/07/13 14:21:53;;;;;;;4.95;1.40;;;34.40;75.00;;;;;;1910104;74;21093;-77
2022/07/13 14:24:45;;;;;;;2.55;1.30;;;34.50;75.30;;;;;;1891988;75;21142;-76
2022/07/13 14:27:36;;;;;;;2.92;1.20;;;34.40;75.60;;;;;;1882574;75;21131;-76
2022/07/13 14:30:28;;;;;;;2.37;1.25;;;34.40;74.80;;;;;;1893722;75;21054;-77
2022/07/13 14:33:20;;;;;;;2.33;1.30;;;34.70;74.20;;;;;;1901761;75;21123;-85
2022/07/13 14:36:12;;;;;;;3.50;1.45;;;34.90;73.90;;;;;;1896811;75;21088;-84
2022/07/13 14:39:03;;;;;;;2.90;1.45;;;34.80;73.40;;;;;;1894562;75;21048;-84
2022/07/13 14:41:55;;;;;;;2.20;1.32;;;34.90;73.40;;;;;;1894894;75;21136;-84
2022/07/13 14:44:47;;;;;;;2.10;1.55;;;35.00;72.90;;;;;;1897935;75;21103;-83
2022/07/13 14:47:39;;;;;;;1.52;1.42;;;34.90;72.80;;;;;;1898354;75;21129;-84
2022/07/13 14:50:32;;;;;;;2.50;1.47;;;35.10;72.10;;;;;;1904597;75;21181;-83
2022/07/13 14:53:25;;;;;;;1.77;1.47;;;35.40;71.50;;;;;;1894937;75;21124;-84
2022/07/13 14:56:17;;;;;;;2.67;1.62;;;35.80;70.70;;;;;;1883640;75;21625;-84
2022/07/13 14:59:09;;;;;;;2.85;1.70;;;35.70;70.40;;;;;;1887704;75;21051;-85
2022/07/13 15:02:00;;;;;;;1.80;1.42;;;35.60;70.20;;;;;;1872181;75;21065;-84
2022/07/13 15:04:52;;;;;;;1.70;1.47;;;35.80;69.80;;;;;;1883142;76;21905;-84
2022/07/13 15:07:44;;;;;;;1.60;1.50;;;35.80;69.40;;;;;;1903430;75;21215;-85
2022/07/13 15:13:17;;;;;;;1.67;1.47;;;36.20;68.20;;;;;;1944510;72;22245;-77
2022/07/13 15:16:08;;;;;;;1.65;1.40;;;36.60;67.40;;;;;;1888298;75;21189;-77
2022/07/13 15:19:00;;;;;;;1.40;1.30;;;36.60;66.70;;;;;;1897017;75;21512;-84
2022/07/13 15:21:52;;;;;;;1.50;1.40;;;36.60;66.40;;;;;;1884849;76;21487;-84
2022/07/13 15:24:43;;;;;;;1.60;1.50;;;36.80;65.80;;;;;;1906526;75;21092;-84
2022/07/13 15:27:34;;;;;;;1.72;1.57;;;36.70;65.60;;;;;;1906547;75;21514;-84
2022/07/13 15:30:28;;;;;;;1.92;1.60;;;36.60;65.40;;;;;;1906681;75;21119;-84
2022/07/13 15:33:21;;;;;;;1.92;1.70;;;36.50;65.20;;;;;;1901692;75;21154;-76
2022/07/13 15:36:12;;;;;;;1.95;1.60;;;36.70;64.80;;;;;;1897155;75;21121;-76
2022/07/13 15:39:04;;;;;;;2.10;1.67;;;37.20;63.80;;;;;;1895666;75;21088;-76
2022/07/13 15:41:55;;;;;;;2.52;1.57;;;37.10;63.40;;;;;;1895519;75;21148;-85
2022/07/13 15:44:47;;;;;;;1.72;1.62;;;37.00;63.60;;;;;;1898570;75;21062;-78
2022/07/13 15:47:38;;;;;;;3.30;1.60;;;37.10;63.30;;;;;;1898741;75;21163;-86
2022/07/13 15:50:30;;;;;;;2.12;1.62;;;37.10;62.80;;;;;;1895421;75;21142;-85
2022/07/13 15:53:21;;;;;;;3.22;1.70;;;37.10;62.90;;;;;;1894982;75;21152;-83
2022/07/13 15:56:13;;;;;;;2.15;1.60;;;37.20;62.40;;;;;;1897099;75;21530;-84
2022/07/13 15:59:05;;;;;;;2.40;1.35;;;37.30;62.50;;;;;;1900346;75;21131;-84
2022/07/13 16:01:56;;;;;;;1.80;1.70;;;37.40;62.30;;;;;;1906879;75;21132;-84
2022/07/13 16:04:47;;;;;;;2.62;1.70;;;37.40;61.90;;;;;;1938383;73;21458;-84
2022/07/13 16:07:40;;;;;;;2.90;1.57;;;37.50;61.80;;;;;;1891582;75;21799;-84
2022/07/13 16:10:32;;;;;;;1.95;1.45;;;37.60;61.00;;;;;;1900347;75;21105;-84
2022/07/13 16:13:23;;;;;;;1.65;1.45;;;37.70;61.00;;;;;;1887156;75;21149;-85
2022/07/13 16:16:14;;;;;;;2.00;1.80;;;38.00;60.20;;;;;;1883097;75;21088;-85
2022/07/13 16:19:06;;;;;;;2.87;1.67;;;38.00;60.10;;;;;;1883269;75;21132;-84
2022/07/13 16:22:00;;;;;;;1.70;1.60;;;37.50;60.10;;;;;;1917635;75;21059;-84
2022/07/13 16:24:51;;;;;;;3.17;1.62;;;37.50;60.10;;;;;;1884051;76;21070;-84
2022/07/13 16:27:42;;;;;;;3.42;1.60;;;37.60;59.90;;;;;;1906158;75;21064;-85
2022/07/13 16:30:34;;;;;;;3.95;1.80;;;37.80;59.30;;;;;;1873159;75;21129;-85
2022/07/13 16:33:26;;;;;;;2.62;1.55;;;37.80;59.30;;;;;;1898971;75;21240;-85
2022/07/13 16:36:17;;;;;;;5.92;1.72;;;38.00;59.00;;;;;;1896918;75;21047;-86
2022/07/13 16:39:09;;;;;;;1.95;1.80;;;38.30;58.70;;;;;;1875286;75;21145;-84
2022/07/13 16:42:00;;;;;;;2.62;1.47;;;38.00;58.20;;;;;;1893604;75;21095;-85
2022/07/13 16:44:53;;;;;;;2.22;1.65;;;38.20;58.30;;;;;;1890399;75;21154;-85
2022/07/13 16:47:44;;;;;;;2.80;1.77;;;38.50;58.00;;;;;;1885331;75;21131;-84
2022/07/13 16:50:36;;;;;;;2.50;1.72;;;38.30;57.90;;;;;;1882544;75;21115;-84
2022/07/13 16:53:28;;;;;;;2.45;1.65;;;38.00;58.20;;;;;;1891841;75;21201;-85
2022/07/13 16:56:20;;;;;;;3.05;1.50;;;38.70;57.20;;;;;;1891109;75;21096;-85
2022/07/13 16:59:11;;;;;;;3.80;1.55;;;38.60;57.30;;;;;;1904828;75;21131;-84